Terminal Aerodrome Forecast
Issued by NWS

Home | Current Version | Previous Version | Text Only | Print | Product List | Glossary Off
Versions: 1 2 3 4 5 6 7 8 9 10 11 12 13 14 15 16 17

422
FTUS43 KABR 241136
TAFPIR
TAF
KPIR 241136Z 2412/2512 01012G20KT P6SM FEW021 OVC100
     FM242000 35013KT P6SM SCT080
     FM250200 34008KT P6SM FEW250
     FM250900 26004KT P6SM BKN130=

USA.gov is the U.S. government's official web portal to all federal, state and local government web resources and services.